createdAt,value
2023-02-16T00:00:33.248Z,25.20
2023-02-16T00:03:21.911Z,24.30
2023-02-16T00:06:07.549Z,24.87
2023-02-16T00:08:55.330Z,24.30
2023-02-16T00:11:41.784Z,24.80
2023-02-16T00:14:27.541Z,25.30
2023-02-16T00:17:12.537Z,24.20
2023-02-16T00:19:57.875Z,24.37
2023-02-16T00:22:43.446Z,23.47
2023-02-16T00:25:28.539Z,24.63
2023-02-16T00:28:20.511Z,23.90
2023-02-16T00:31:06.524Z,24.00
2023-02-16T00:33:51.613Z,24.30
2023-02-16T00:36:37.000Z,22.57
2023-02-16T00:39:22.864Z,24.37
2023-02-16T00:42:19.070Z,23.67
2023-02-16T00:45:05.021Z,24.03
2023-02-16T00:47:52.172Z,25.47
2023-02-16T00:50:37.615Z,23.40
2023-02-16T00:53:23.012Z,24.63
2023-02-16T00:56:13.153Z,24.00
2023-02-16T00:58:58.646Z,23.87
2023-02-16T01:01:44.542Z,24.83
2023-02-16T01:04:30.169Z,24.30
2023-02-16T01:07:18.698Z,25.07
2023-02-16T01:10:04.180Z,24.83
2023-02-16T01:12:49.535Z,25.97
2023-02-16T01:15:36.323Z,25.73
2023-02-16T01:18:21.837Z,25.20
2023-02-16T01:21:07.414Z,25.13
2023-02-16T01:23:52.604Z,24.37
2023-02-16T01:26:40.536Z,25.37
2023-02-16T01:29:25.742Z,26.20
2023-02-16T01:32:12.876Z,25.07
2023-02-16T01:34:58.230Z,25.67
2023-02-16T01:37:43.842Z,25.53
2023-02-16T01:40:35.255Z,25.23
2023-02-16T01:43:26.937Z,26.03
2023-02-16T01:46:18.333Z,26.37
2023-02-16T01:49:03.459Z,25.97
2023-02-16T01:51:57.811Z,25.37
2023-02-16T01:54:52.102Z,26.23
2023-02-16T01:57:50.464Z,25.90
2023-02-16T02:00:54.121Z,23.80
2023-02-16T02:03:39.288Z,27.57
2023-02-16T02:06:33.459Z,25.00
2023-02-16T02:09:42.433Z,26.93
2023-02-16T02:12:34.877Z,25.87
2023-02-16T02:15:24.580Z,28.03
2023-02-16T02:18:10.014Z,25.93
2023-02-16T02:21:22.762Z,27.00
2023-02-16T02:24:45.542Z,26.37
2023-02-16T02:28:00.187Z,27.03
2023-02-16T02:30:52.852Z,27.23
2023-02-16T02:34:02.477Z,26.63
2023-02-16T02:37:08.967Z,27.40
2023-02-16T02:40:06.540Z,26.87
2023-02-16T02:43:19.440Z,26.17
2023-02-16T02:46:23.619Z,26.40
2023-02-16T02:49:08.915Z,26.63
2023-02-16T02:51:54.513Z,27.67
2023-02-16T02:54:43.642Z,28.60
2023-02-16T02:57:40.585Z,27.17
2023-02-16T03:00:41.106Z,26.97
2023-02-16T03:03:37.516Z,27.60
2023-02-16T03:06:34.836Z,28.43
2023-02-16T03:09:20.966Z,28.23
2023-02-16T03:12:08.411Z,28.33
2023-02-16T03:14:59.666Z,27.90
2023-02-16T03:17:46.476Z,28.90
2023-02-16T03:20:31.843Z,29.97
2023-02-16T03:23:16.925Z,29.47
2023-02-16T03:26:02.546Z,30.03
2023-02-16T03:28:49.292Z,31.27
2023-02-16T03:31:36.595Z,28.60
2023-02-16T03:34:22.824Z,29.87
2023-02-16T03:37:08.035Z,28.77
2023-02-16T03:39:53.234Z,30.73
2023-02-16T03:42:38.348Z,31.03
2023-02-16T03:45:24.336Z,30.90
2023-02-16T03:48:10.083Z,29.93
2023-02-16T03:50:55.207Z,31.20
2023-02-16T03:53:40.050Z,30.87
2023-02-16T03:56:25.478Z,33.20
2023-02-16T03:59:10.536Z,32.20
2023-02-16T04:01:55.395Z,33.57
2023-02-16T04:04:40.951Z,33.00
2023-02-16T04:07:26.418Z,32.90
2023-02-16T04:10:11.357Z,33.50
2023-02-16T04:12:56.994Z,33.07
2023-02-16T04:15:42.149Z,33.30
2023-02-16T04:18:27.208Z,34.23
2023-02-16T04:21:12.583Z,34.97
2023-02-16T04:23:57.887Z,34.90
2023-02-16T04:26:42.835Z,32.83
2023-02-16T04:29:28.091Z,33.70
2023-02-16T04:32:13.663Z,34.77
2023-02-16T04:34:59.045Z,36.23
2023-02-16T04:37:44.331Z,36.40
2023-02-16T04:40:29.640Z,34.67
2023-02-16T04:43:14.655Z,34.60
2023-02-16T04:45:59.876Z,32.40
2023-02-16T04:48:45.589Z,33.67
2023-02-16T04:51:31.048Z,33.20
2023-02-16T04:54:16.810Z,33.63
2023-02-16T04:57:01.977Z,35.27
2023-02-16T04:59:47.233Z,34.57
2023-02-16T05:02:33.257Z,34.43
2023-02-16T05:05:18.471Z,37.00
2023-02-16T05:08:03.937Z,35.07
2023-02-16T05:10:49.131Z,36.47
2023-02-16T05:13:35.266Z,35.87
2023-02-16T05:16:22.961Z,37.27
2023-02-16T05:19:08.181Z,37.63
2023-02-16T05:21:53.382Z,38.93
2023-02-16T05:24:39.068Z,38.97
2023-02-16T05:27:26.532Z,38.87
2023-02-16T05:30:12.511Z,38.70
2023-02-16T05:32:57.810Z,38.00
2023-02-16T05:35:43.240Z,37.73
2023-02-16T05:38:28.689Z,38.40
2023-02-16T05:41:13.996Z,35.63
2023-02-16T05:44:01.034Z,35.67
2023-02-16T05:46:46.340Z,36.20
2023-02-16T05:49:31.597Z,36.47
2023-02-16T05:52:16.912Z,34.40
2023-02-16T05:55:02.417Z,36.03
2023-02-16T05:57:47.951Z,35.80
2023-02-16T06:00:33.316Z,36.53
2023-02-16T06:03:18.882Z,35.87
2023-02-16T06:06:05.138Z,34.67
2023-02-16T06:08:50.137Z,35.37
2023-02-16T06:11:36.351Z,36.60
2023-02-16T06:14:21.556Z,37.20
2023-02-16T06:17:07.188Z,37.47
2023-02-16T06:19:52.294Z,35.20
2023-02-16T06:22:37.239Z,34.00
2023-02-16T06:25:22.085Z,37.80
2023-02-16T06:28:07.426Z,36.53
2023-02-16T06:30:52.663Z,37.80
2023-02-16T06:33:38.128Z,36.97
2023-02-16T06:36:24.163Z,38.53
2023-02-16T06:39:09.623Z,37.17
2023-02-16T06:41:55.142Z,36.07
2023-02-16T06:44:40.424Z,36.00
2023-02-16T06:47:26.054Z,36.73
2023-02-16T06:50:11.631Z,36.17
2023-02-16T06:52:56.858Z,35.70
2023-02-16T06:55:41.993Z,35.07
2023-02-16T06:58:27.306Z,36.20
2023-02-16T07:01:12.526Z,34.97
2023-02-16T07:03:58.964Z,41.63
2023-02-16T07:06:44.263Z,37.80
2023-02-16T07:09:29.125Z,34.70
2023-02-16T07:12:14.310Z,36.00
2023-02-16T07:14:59.798Z,35.73
2023-02-16T07:17:45.229Z,34.50
2023-02-16T07:20:30.617Z,35.10
2023-02-16T07:23:15.755Z,34.80
2023-02-16T07:26:00.785Z,34.47
2023-02-16T07:28:45.993Z,36.10
2023-02-16T07:31:31.447Z,35.43
2023-02-16T07:34:16.912Z,34.03
2023-02-16T07:37:02.129Z,34.13
2023-02-16T07:39:47.624Z,34.47
2023-02-16T07:42:33.426Z,31.57
2023-02-16T07:45:18.683Z,32.43
2023-02-16T07:48:04.381Z,31.33
2023-02-16T07:50:49.467Z,31.30
2023-02-16T07:53:34.657Z,31.37
2023-02-16T07:56:25.062Z,31.20
2023-02-16T07:59:10.106Z,31.73
2023-02-16T08:01:55.679Z,31.23
2023-02-16T08:04:40.704Z,31.40
2023-02-16T08:07:25.762Z,30.93
2023-02-16T08:10:11.168Z,31.70
2023-02-16T08:12:56.166Z,32.33
2023-02-16T08:15:44.996Z,31.03
2023-02-16T08:18:30.895Z,31.57
2023-02-16T08:21:21.603Z,30.93
2023-02-16T08:24:08.195Z,30.43
2023-02-16T08:26:54.162Z,30.13
2023-02-16T08:29:39.624Z,31.33
2023-02-16T08:32:25.167Z,30.87
2023-02-16T08:35:10.627Z,32.50
2023-02-16T08:37:56.007Z,32.27
2023-02-16T08:40:47.954Z,31.67
2023-02-16T08:43:33.389Z,30.33
2023-02-16T08:46:18.710Z,31.53
2023-02-16T08:49:03.930Z,30.70
2023-02-16T08:51:54.902Z,30.70
2023-02-16T08:54:40.282Z,30.83
2023-02-16T08:57:25.660Z,30.87
2023-02-16T09:00:11.307Z,30.97
2023-02-16T09:02:59.007Z,30.67
2023-02-16T09:05:48.448Z,31.00
2023-02-16T09:08:33.412Z,29.53
2023-02-16T09:11:20.530Z,30.27
2023-02-16T09:14:05.772Z,30.00
2023-02-16T09:16:50.995Z,29.73
2023-02-16T09:19:36.345Z,29.93
2023-02-16T09:22:21.324Z,29.90
2023-02-16T09:25:07.232Z,29.93
2023-02-16T09:27:52.647Z,30.30
2023-02-16T09:30:39.580Z,29.87
2023-02-16T09:33:25.255Z,29.60
2023-02-16T09:36:11.749Z,29.50
2023-02-16T09:38:57.435Z,28.77
2023-02-16T09:42:11.207Z,31.33
2023-02-16T09:45:09.128Z,29.17
2023-02-16T09:47:56.334Z,30.33
2023-02-16T09:50:53.845Z,28.67
2023-02-16T09:53:42.679Z,28.10
2023-02-16T09:56:36.255Z,28.47
2023-02-16T09:59:43.314Z,29.93
2023-02-16T10:02:50.167Z,29.67
2023-02-16T10:05:54.385Z,30.57
2023-02-16T10:08:49.181Z,29.80
2023-02-16T10:11:43.759Z,28.33
2023-02-16T10:14:40.255Z,28.77
2023-02-16T10:17:33.083Z,29.03
2023-02-16T10:20:25.458Z,29.60
2023-02-16T10:23:37.109Z,29.57
2023-02-16T10:26:43.350Z,29.53
2023-02-16T10:29:28.508Z,29.00
2023-02-16T10:32:24.762Z,28.53
2023-02-16T10:35:16.449Z,29.30
2023-02-16T10:38:26.593Z,28.90
2023-02-16T10:41:30.723Z,28.77
2023-02-16T10:44:22.356Z,28.70
2023-02-16T10:47:22.861Z,28.07
2023-02-16T10:50:21.800Z,28.60
2023-02-16T10:53:13.373Z,30.20
2023-02-16T10:55:59.119Z,28.97
2023-02-16T10:58:44.459Z,30.00
2023-02-16T11:01:38.751Z,28.93
2023-02-16T11:04:41.453Z,29.33
2023-02-16T11:07:29.322Z,29.90
2023-02-16T11:10:33.542Z,31.93
2023-02-16T11:13:31.532Z,28.00
2023-02-16T11:16:23.460Z,26.70
2023-02-16T11:19:24.438Z,26.00
2023-02-16T11:22:27.017Z,24.43
2023-02-16T11:25:18.230Z,23.90
2023-02-16T11:28:03.710Z,23.53
2023-02-16T11:30:49.146Z,22.80
2023-02-16T11:33:35.296Z,24.20
2023-02-16T11:36:40.374Z,24.43
2023-02-16T11:39:30.168Z,24.93
2023-02-16T11:42:33.030Z,24.00
2023-02-16T11:45:44.275Z,23.70
2023-02-16T11:48:32.737Z,23.93
2023-02-16T11:51:32.038Z,24.83
2023-02-16T11:54:18.034Z,24.27
2023-02-16T11:57:07.534Z,22.77
2023-02-16T11:59:53.119Z,22.63
2023-02-16T12:03:06.119Z,23.37
2023-02-16T12:06:03.721Z,23.60
2023-02-16T12:08:58.324Z,21.73
2023-02-16T12:12:10.924Z,21.87
2023-02-16T12:15:12.246Z,22.57
2023-02-16T12:18:12.740Z,22.93
2023-02-16T12:21:12.648Z,23.33
2023-02-16T12:24:09.878Z,23.70
2023-02-16T12:27:02.676Z,22.80
2023-02-16T12:30:13.062Z,22.37
2023-02-16T12:33:13.505Z,22.90
2023-02-16T12:36:37.712Z,22.27
2023-02-16T12:39:31.264Z,22.37
2023-02-16T12:42:22.210Z,23.17
2023-02-16T12:45:18.735Z,22.87
2023-02-16T12:48:16.509Z,22.33
2023-02-16T12:51:06.311Z,23.33
2023-02-16T12:53:54.695Z,23.52
2023-02-16T12:56:47.563Z,23.13
2023-02-16T12:59:37.099Z,22.67
2023-02-16T13:02:28.585Z,23.52
2023-02-16T13:05:20.690Z,22.80
2023-02-16T13:08:20.025Z,23.77
2023-02-16T13:11:16.322Z,23.70
2023-02-16T13:14:10.875Z,23.20
2023-02-16T13:17:08.921Z,23.60
2023-02-16T13:19:54.060Z,24.23
2023-02-16T13:23:16.816Z,24.03
2023-02-16T13:26:05.767Z,23.13
2023-02-16T13:29:00.064Z,24.30
2023-02-16T13:32:05.182Z,24.87
2023-02-16T13:34:56.584Z,24.13
2023-02-16T13:37:47.603Z,25.20
2023-02-16T13:41:22.671Z,24.10
2023-02-16T13:44:15.929Z,24.00
2023-02-16T13:47:03.146Z,24.50
2023-02-16T13:49:48.683Z,25.37
2023-02-16T13:52:40.614Z,25.73
2023-02-16T13:55:32.917Z,25.33
2023-02-16T13:58:18.370Z,27.90
2023-02-16T14:01:28.100Z,25.77
2023-02-16T14:04:22.074Z,25.33
2023-02-16T14:07:07.388Z,26.03
2023-02-16T14:09:52.696Z,26.73
2023-02-16T14:12:39.799Z,26.13
2023-02-16T14:15:25.004Z,27.03
2023-02-16T14:18:36.883Z,26.20
2023-02-16T14:21:32.635Z,27.77
2023-02-16T14:24:34.864Z,27.42
2023-02-16T14:27:40.939Z,27.53
2023-02-16T14:30:36.812Z,28.43
2023-02-16T14:33:37.344Z,28.07
2023-02-16T14:36:23.363Z,28.60
2023-02-16T14:39:12.778Z,28.40
2023-02-16T14:42:15.692Z,28.37
2023-02-16T14:45:37.314Z,29.20
2023-02-16T14:48:47.492Z,29.17
2023-02-16T14:51:49.027Z,27.43
2023-02-16T14:54:48.694Z,27.20
2023-02-16T14:57:48.847Z,29.70
2023-02-16T15:00:52.848Z,30.07
2023-02-16T15:03:42.865Z,29.20
2023-02-16T15:06:39.613Z,29.93
2023-02-16T15:09:33.010Z,30.23
2023-02-16T15:12:29.754Z,29.90
2023-02-16T15:15:21.199Z,29.93
2023-02-16T15:18:14.644Z,29.90
2023-02-16T15:21:00.791Z,30.33
2023-02-16T15:23:58.084Z,30.63
2023-02-16T15:26:53.946Z,30.73
2023-02-16T15:29:42.415Z,30.53
2023-02-16T15:32:27.922Z,29.53
2023-02-16T15:35:24.818Z,30.47
2023-02-16T15:38:13.117Z,30.10
2023-02-16T15:41:03.058Z,31.03
2023-02-16T15:43:50.984Z,31.20
2023-02-16T15:46:42.035Z,30.53
2023-02-16T15:49:29.281Z,30.83
2023-02-16T15:52:27.406Z,31.30
2023-02-16T15:55:12.961Z,30.73
2023-02-16T15:57:58.994Z,31.47
2023-02-16T16:00:45.385Z,31.33
2023-02-16T16:03:30.407Z,32.03
2023-02-16T16:06:15.855Z,30.50
2023-02-16T16:09:01.819Z,30.20
2023-02-16T16:11:49.832Z,30.73
2023-02-16T16:14:38.527Z,31.30
2023-02-16T16:17:31.268Z,31.47
2023-02-16T16:20:38.358Z,32.17
2023-02-16T16:23:27.271Z,31.10
2023-02-16T16:26:21.956Z,32.03
2023-02-16T16:29:30.327Z,31.87
2023-02-16T16:32:20.125Z,31.30
2023-02-16T16:35:33.354Z,32.73
2023-02-16T16:38:28.726Z,31.27
2023-02-16T16:41:26.929Z,32.70
2023-02-16T16:44:29.179Z,32.43
2023-02-16T16:47:25.448Z,32.83
2023-02-16T16:50:11.176Z,31.87
2023-02-16T16:52:56.778Z,33.23
2023-02-16T16:55:41.867Z,32.90
2023-02-16T16:58:27.261Z,32.70
2023-02-16T17:01:12.906Z,36.40
2023-02-16T17:03:58.714Z,38.07
2023-02-16T17:06:44.087Z,32.80
2023-02-16T17:09:29.595Z,31.37
2023-02-16T17:12:15.176Z,31.70
2023-02-16T17:15:02.150Z,32.77
2023-02-16T17:17:47.238Z,32.37
2023-02-16T17:20:32.967Z,32.60
2023-02-16T17:23:20.560Z,32.80
2023-02-16T17:26:06.955Z,32.77
2023-02-16T17:28:52.204Z,33.43
2023-02-16T17:31:37.690Z,32.37
2023-02-16T17:34:22.950Z,34.27
2023-02-16T17:37:10.383Z,32.83
2023-02-16T17:39:55.315Z,33.63
2023-02-16T17:42:41.908Z,32.50
2023-02-16T17:45:27.286Z,32.43
2023-02-16T17:48:30.594Z,33.97
2023-02-16T17:51:19.326Z,32.63
2023-02-16T17:54:06.585Z,32.73
2023-02-16T17:56:52.261Z,33.33
2023-02-16T17:59:37.473Z,34.47
2023-02-16T18:02:22.983Z,33.60
2023-02-16T18:05:09.281Z,34.37
2023-02-16T18:07:56.096Z,34.10
2023-02-16T18:10:52.607Z,33.53
2023-02-16T18:13:38.676Z,31.77
2023-02-16T18:16:27.186Z,36.47
2023-02-16T18:19:14.509Z,36.10
2023-02-16T18:22:00.752Z,36.93
2023-02-16T18:24:46.239Z,38.17
2023-02-16T18:27:31.802Z,37.33
2023-02-16T18:30:17.839Z,36.23
2023-02-16T18:33:03.028Z,35.17
2023-02-16T18:35:54.254Z,36.43
2023-02-16T18:38:39.143Z,36.77
2023-02-16T18:41:24.599Z,36.90
2023-02-16T18:44:09.962Z,36.33
2023-02-16T18:46:55.778Z,35.23
2023-02-16T18:49:41.040Z,34.43
2023-02-16T18:52:26.403Z,33.33
2023-02-16T18:55:12.937Z,31.73
2023-02-16T18:57:58.669Z,32.67
2023-02-16T19:00:44.083Z,32.10
2023-02-16T19:03:30.408Z,32.00
2023-02-16T19:06:15.857Z,31.50
2023-02-16T19:09:01.094Z,32.23
2023-02-16T19:11:46.620Z,32.13
2023-02-16T19:14:31.805Z,30.87
2023-02-16T19:17:17.521Z,25.73
2023-02-16T19:20:02.641Z,25.90
2023-02-16T19:22:49.128Z,25.83
2023-02-16T19:25:34.076Z,24.20
2023-02-16T19:28:19.375Z,23.50
2023-02-16T19:31:07.582Z,24.57
2023-02-16T19:33:53.260Z,22.13
2023-02-16T19:36:38.739Z,20.50
2023-02-16T19:39:23.857Z,20.27
2023-02-16T19:42:09.284Z,19.33
2023-02-16T19:45:02.502Z,18.30
2023-02-16T19:47:50.228Z,19.60
2023-02-16T19:50:35.745Z,18.20
2023-02-16T19:53:21.115Z,18.87
2023-02-16T19:56:27.939Z,19.20
2023-02-16T19:59:13.391Z,19.03
2023-02-16T20:01:58.755Z,18.10
2023-02-16T20:04:44.704Z,19.70
2023-02-16T20:07:30.135Z,18.47
2023-02-16T20:10:15.688Z,18.63
2023-02-16T20:13:03.542Z,18.40
2023-02-16T20:15:48.563Z,19.57
2023-02-16T20:18:35.032Z,18.87
2023-02-16T20:21:23.116Z,19.23
2023-02-16T20:24:09.541Z,18.97
2023-02-16T20:26:54.730Z,18.20
2023-02-16T20:29:40.619Z,18.30
2023-02-16T20:32:27.193Z,17.93
2023-02-16T20:35:12.455Z,18.67
2023-02-16T20:37:57.805Z,18.50
2023-02-16T20:40:43.714Z,20.77
2023-02-16T20:43:29.132Z,18.70
2023-02-16T20:46:16.075Z,19.43
2023-02-16T20:49:01.782Z,19.13
2023-02-16T20:51:46.964Z,19.03
2023-02-16T20:54:32.280Z,18.37
2023-02-16T20:57:26.451Z,18.87
2023-02-16T21:00:16.231Z,19.17
2023-02-16T21:03:01.306Z,20.77
2023-02-16T21:05:46.544Z,19.80
2023-02-16T21:08:31.474Z,20.50
2023-02-16T21:11:17.566Z,22.43
2023-02-16T21:14:04.263Z,20.50
2023-02-16T21:16:49.753Z,21.23
2023-02-16T21:19:35.227Z,23.23
2023-02-16T21:22:20.183Z,23.87
2023-02-16T21:25:05.564Z,23.77
2023-02-16T21:27:50.391Z,23.57
2023-02-16T21:30:35.852Z,25.23
2023-02-16T21:33:21.719Z,23.60
2023-02-16T21:36:10.278Z,26.53
2023-02-16T21:38:55.880Z,28.43
2023-02-16T21:41:41.178Z,26.67
2023-02-16T21:44:26.555Z,26.97
2023-02-16T21:47:13.814Z,30.17
2023-02-16T21:49:59.601Z,28.87
2023-02-16T21:52:45.047Z,27.80
2023-02-16T21:55:30.762Z,30.13
2023-02-16T21:58:16.584Z,27.97
2023-02-16T22:01:02.003Z,31.40
2023-02-16T22:03:47.445Z,28.83
2023-02-16T22:06:39.381Z,29.13
2023-02-16T22:09:24.945Z,28.33
2023-02-16T22:12:10.377Z,30.80
2023-02-16T22:14:55.598Z,28.67
2023-02-16T22:17:40.953Z,25.47
2023-02-16T22:20:25.927Z,28.30
2023-02-16T22:23:11.205Z,29.00
2023-02-16T22:25:56.559Z,30.10
2023-02-16T22:28:41.947Z,26.40
2023-02-16T22:31:27.673Z,27.17
2023-02-16T22:34:16.215Z,27.77
2023-02-16T22:37:01.633Z,28.80
2023-02-16T22:39:46.601Z,30.77
2023-02-16T22:42:32.077Z,31.40
2023-02-16T22:45:17.183Z,28.40
2023-02-16T22:48:02.607Z,30.40
2023-02-16T22:51:00.082Z,32.47
2023-02-16T22:53:45.976Z,31.67
2023-02-16T22:56:32.646Z,34.80
2023-02-16T22:59:17.679Z,32.93
2023-02-16T23:02:03.059Z,34.67
2023-02-16T23:04:48.316Z,34.43
2023-02-16T23:07:34.599Z,35.23
2023-02-16T23:10:19.899Z,36.57
2023-02-16T23:13:08.418Z,35.77
2023-02-16T23:15:53.937Z,36.80
2023-02-16T23:18:40.029Z,35.80
2023-02-16T23:21:28.726Z,38.70
2023-02-16T23:24:17.231Z,43.83
2023-02-16T23:27:02.933Z,45.47
2023-02-16T23:29:48.816Z,46.10
2023-02-16T23:32:33.755Z,45.87
2023-02-16T23:35:19.683Z,46.37
2023-02-16T23:38:06.253Z,46.77
2023-02-16T23:41:00.133Z,45.70
2023-02-16T23:43:46.135Z,42.33
2023-02-16T23:46:32.002Z,41.60
2023-02-16T23:49:17.879Z,47.00
2023-02-16T23:52:03.304Z,44.37
2023-02-16T23:54:48.256Z,41.60
2023-02-16T23:57:33.904Z,41.10
